sensor_id;sensor_type;location;lat;lon;timestamp;temperature;humidity
4548;DHT22;2286;51.570;7.090;2023-04-15T00:00:42;6.50;1.00
4548;DHT22;2286;51.570;7.090;2023-04-15T00:03:09;6.40;1.00
4548;DHT22;2286;51.570;7.090;2023-04-15T00:05:35;6.40;55.40
4548;DHT22;2286;51.570;7.090;2023-04-15T00:08:03;6.40;20.70
4548;DHT22;2286;51.570;7.090;2023-04-15T00:10:30;6.40;29.80
4548;DHT22;2286;51.570;7.090;2023-04-15T00:12:58;6.40;99.90
4548;DHT22;2286;51.570;7.090;2023-04-15T00:15:24;6.30;36.60
4548;DHT22;2286;51.570;7.090;2023-04-15T00:17:52;6.30;99.90
4548;DHT22;2286;51.570;7.090;2023-04-15T00:20:18;6.30;99.90
4548;DHT22;2286;51.570;7.090;2023-04-15T00:22:45;6.20;99.90
4548;DHT22;2286;51.570;7.090;2023-04-15T00:25:12;6.20;99.90
4548;DHT22;2286;51.570;7.090;2023-04-15T00:27:39;6.20;99.90
4548;DHT22;2286;51.570;7.090;2023-04-15T00:30:08;6.30;99.90
4548;DHT22;2286;51.570;7.090;2023-04-15T00:32:36;6.30;99.90
4548;DHT22;2286;51.570;7.090;2023-04-15T00:35:03;6.20;99.90
4548;DHT22;2286;51.570;7.090;2023-04-15T00:37:30;6.30;99.90
4548;DHT22;2286;51.570;7.090;2023-04-15T00:39:57;6.20;1.00
4548;DHT22;2286;51.570;7.090;2023-04-15T00:42:24;6.20;1.00
4548;DHT22;2286;51.570;7.090;2023-04-15T00:44:51;6.20;1.00
4548;DHT22;2286;51.570;7.090;2023-04-15T00:47:19;6.20;1.00
4548;DHT22;2286;51.570;7.090;2023-04-15T00:49:47;6.10;1.00
4548;DHT22;2286;51.570;7.090;2023-04-15T00:52:14;6.00;1.00
4548;DHT22;2286;51.570;7.090;2023-04-15T00:54:40;6.00;1.00
4548;DHT22;2286;51.570;7.090;2023-04-15T00:57:07;6.00;36.70
4548;DHT22;2286;51.570;7.090;2023-04-15T00:59:34;5.90;99.90
4548;DHT22;2286;51.570;7.090;2023-04-15T01:02:01;5.80;99.90
4548;DHT22;2286;51.570;7.090;2023-04-15T01:04:29;5.80;99.90
4548;DHT22;2286;51.570;7.090;2023-04-15T01:06:57;5.70;1.00
4548;DHT22;2286;51.570;7.090;2023-04-15T01:09:23;5.60;1.00
4548;DHT22;2286;51.570;7.090;2023-04-15T01:11:50;5.70;1.10
4548;DHT22;2286;51.570;7.090;2023-04-15T01:14:17;5.60;7.40
4548;DHT22;2286;51.570;7.090;2023-04-15T01:16:45;5.60;99.90
4548;DHT22;2286;51.570;7.090;2023-04-15T01:19:13;5.50;52.00
4548;DHT22;2286;51.570;7.090;2023-04-15T01:21:43;5.60;99.90
4548;DHT22;2286;51.570;7.090;2023-04-15T01:24:10;5.50;99.90
4548;DHT22;2286;51.570;7.090;2023-04-15T01:26:40;5.50;99.90
4548;DHT22;2286;51.570;7.090;2023-04-15T01:29:07;5.50;99.90
4548;DHT22;2286;51.570;7.090;2023-04-15T01:31:34;5.40;99.90
4548;DHT22;2286;51.570;7.090;2023-04-15T01:34:02;5.40;1.00
4548;DHT22;2286;51.570;7.090;2023-04-15T01:36:29;5.40;1.00
4548;DHT22;2286;51.570;7.090;2023-04-15T01:38:56;5.40;1.00
4548;DHT22;2286;51.570;7.090;2023-04-15T01:41:24;5.40;63.60
4548;DHT22;2286;51.570;7.090;2023-04-15T01:43:53;5.40;1.00
4548;DHT22;2286;51.570;7.090;2023-04-15T01:46:21;5.30;1.00
4548;DHT22;2286;51.570;7.090;2023-04-15T01:48:48;5.30;72.80
4548;DHT22;2286;51.570;7.090;2023-04-15T01:51:15;5.30;1.00
4548;DHT22;2286;51.570;7.090;2023-04-15T01:53:42;5.20;99.90
4548;DHT22;2286;51.570;7.090;2023-04-15T01:56:09;5.30;99.90
4548;DHT22;2286;51.570;7.090;2023-04-15T01:58:36;5.20;99.90
4548;DHT22;2286;51.570;7.090;2023-04-15T02:01:04;5.20;99.90
4548;DHT22;2286;51.570;7.090;2023-04-15T02:03:31;5.10;1.00
4548;DHT22;2286;51.570;7.090;2023-04-15T02:05:58;5.10;13.40
4548;DHT22;2286;51.570;7.090;2023-04-15T02:08:25;5.00;8.20
4548;DHT22;2286;51.570;7.090;2023-04-15T02:10:53;4.90;99.90
4548;DHT22;2286;51.570;7.090;2023-04-15T02:13:20;4.90;99.90
4548;DHT22;2286;51.570;7.090;2023-04-15T02:15:47;4.80;99.90
4548;DHT22;2286;51.570;7.090;2023-04-15T02:18:16;4.80;99.90
4548;DHT22;2286;51.570;7.090;2023-04-15T02:20:43;4.70;99.90
4548;DHT22;2286;51.570;7.090;2023-04-15T02:23:11;4.60;99.90
4548;DHT22;2286;51.570;7.090;2023-04-15T02:25:38;4.60;99.90
4548;DHT22;2286;51.570;7.090;2023-04-15T02:28:05;4.50;1.00
4548;DHT22;2286;51.570;7.090;2023-04-15T02:30:32;4.50;1.00
4548;DHT22;2286;51.570;7.090;2023-04-15T02:33:00;4.50;1.00
4548;DHT22;2286;51.570;7.090;2023-04-15T02:35:28;4.50;99.90
4548;DHT22;2286;51.570;7.090;2023-04-15T02:37:55;4.50;99.90
4548;DHT22;2286;51.570;7.090;2023-04-15T02:40:22;4.50;1.00
4548;DHT22;2286;51.570;7.090;2023-04-15T02:42:49;4.50;1.00
4548;DHT22;2286;51.570;7.090;2023-04-15T02:45:16;4.40;1.00
4548;DHT22;2286;51.570;7.090;2023-04-15T02:47:48;4.40;1.00
4548;DHT22;2286;51.570;7.090;2023-04-15T02:50:15;4.40;99.90
4548;DHT22;2286;51.570;7.090;2023-04-15T02:52:43;4.40;99.90
4548;DHT22;2286;51.570;7.090;2023-04-15T02:55:11;4.40;1.00
4548;DHT22;2286;51.570;7.090;2023-04-15T02:57:38;4.40;1.00
4548;DHT22;2286;51.570;7.090;2023-04-15T03:00:06;4.40;1.00
4548;DHT22;2286;51.570;7.090;2023-04-15T03:02:36;4.40;99.90
4548;DHT22;2286;51.570;7.090;2023-04-15T03:05:04;4.40;99.90
4548;DHT22;2286;51.570;7.090;2023-04-15T03:07:31;4.50;99.90
4548;DHT22;2286;51.570;7.090;2023-04-15T03:10:00;4.40;99.90
4548;DHT22;2286;51.570;7.090;2023-04-15T03:12:27;4.30;99.90
4548;DHT22;2286;51.570;7.090;2023-04-15T03:14:55;4.40;1.00
4548;DHT22;2286;51.570;7.090;2023-04-15T03:17:22;4.40;1.00
4548;DHT22;2286;51.570;7.090;2023-04-15T03:19:49;4.40;1.00
4548;DHT22;2286;51.570;7.090;2023-04-15T03:22:16;4.30;99.90
4548;DHT22;2286;51.570;7.090;2023-04-15T03:24:43;4.30;99.90
4548;DHT22;2286;51.570;7.090;2023-04-15T03:27:11;4.30;99.90
4548;DHT22;2286;51.570;7.090;2023-04-15T03:29:38;4.20;99.90
4548;DHT22;2286;51.570;7.090;2023-04-15T03:32:05;4.30;1.00
4548;DHT22;2286;51.570;7.090;2023-04-15T03:34:32;4.20;1.00
4548;DHT22;2286;51.570;7.090;2023-04-15T03:36:59;4.20;1.00
4548;DHT22;2286;51.570;7.090;2023-04-15T03:39:26;4.20;1.00
4548;DHT22;2286;51.570;7.090;2023-04-15T03:41:53;4.20;1.00
4548;DHT22;2286;51.570;7.090;2023-04-15T03:44:22;4.10;1.00
4548;DHT22;2286;51.570;7.090;2023-04-15T03:46:49;4.10;1.00
4548;DHT22;2286;51.570;7.090;2023-04-15T03:49:16;4.10;1.00
4548;DHT22;2286;51.570;7.090;2023-04-15T03:51:43;4.10;1.00
4548;DHT22;2286;51.570;7.090;2023-04-15T03:54:11;4.20;33.40
4548;DHT22;2286;51.570;7.090;2023-04-15T03:56:40;4.20;99.90
4548;DHT22;2286;51.570;7.090;2023-04-15T03:59:07;4.20;99.90
4548;DHT22;2286;51.570;7.090;2023-04-15T04:01:35;4.20;99.90
4548;DHT22;2286;51.570;7.090;2023-04-15T04:04:02;4.10;99.90
4548;DHT22;2286;51.570;7.090;2023-04-15T04:06:29;4.10;99.90
4548;DHT22;2286;51.570;7.090;2023-04-15T04:08:57;4.20;99.90
4548;DHT22;2286;51.570;7.090;2023-04-15T04:11:24;4.20;99.90
4548;DHT22;2286;51.570;7.090;2023-04-15T04:13:51;4.20;99.90
4548;DHT22;2286;51.570;7.090;2023-04-15T04:16:18;4.10;99.90
4548;DHT22;2286;51.570;7.090;2023-04-15T04:18:46;4.10;99.90
4548;DHT22;2286;51.570;7.090;2023-04-15T04:21:13;4.10;99.90
4548;DHT22;2286;51.570;7.090;2023-04-15T04:23:40;4.00;99.90
4548;DHT22;2286;51.570;7.090;2023-04-15T04:26:07;4.00;99.90
4548;DHT22;2286;51.570;7.090;2023-04-15T04:28:35;4.00;99.90
4548;DHT22;2286;51.570;7.090;2023-04-15T04:31:04;4.10;99.90
4548;DHT22;2286;51.570;7.090;2023-04-15T04:33:31;4.10;99.90
4548;DHT22;2286;51.570;7.090;2023-04-15T04:35:59;4.10;99.90
4548;DHT22;2286;51.570;7.090;2023-04-15T04:38:26;4.10;99.90
4548;DHT22;2286;51.570;7.090;2023-04-15T04:40:53;4.10;99.90
4548;DHT22;2286;51.570;7.090;2023-04-15T04:43:20;4.10;99.90
4548;DHT22;2286;51.570;7.090;2023-04-15T04:45:47;4.10;99.90
4548;DHT22;2286;51.570;7.090;2023-04-15T04:48:14;4.00;99.90
4548;DHT22;2286;51.570;7.090;2023-04-15T04:50:42;4.10;99.90
4548;DHT22;2286;51.570;7.090;2023-04-15T04:53:11;4.10;99.90
4548;DHT22;2286;51.570;7.090;2023-04-15T04:55:38;4.10;99.90
4548;DHT22;2286;51.570;7.090;2023-04-15T04:58:05;4.10;99.90
4548;DHT22;2286;51.570;7.090;2023-04-15T05:00:32;4.10;99.90
4548;DHT22;2286;51.570;7.090;2023-04-15T05:02:59;4.10;99.90
4548;DHT22;2286;51.570;7.090;2023-04-15T05:05:26;4.10;99.90
4548;DHT22;2286;51.570;7.090;2023-04-15T05:07:53;4.00;99.90
4548;DHT22;2286;51.570;7.090;2023-04-15T05:10:22;4.10;99.90
4548;DHT22;2286;51.570;7.090;2023-04-15T05:12:49;4.10;99.90
4548;DHT22;2286;51.570;7.090;2023-04-15T05:15:16;4.20;99.90
4548;DHT22;2286;51.570;7.090;2023-04-15T05:17:43;4.10;99.90
4548;DHT22;2286;51.570;7.090;2023-04-15T05:20:11;4.20;99.90
4548;DHT22;2286;51.570;7.090;2023-04-15T05:22:38;4.20;99.90
4548;DHT22;2286;51.570;7.090;2023-04-15T05:25:06;4.20;99.90
4548;DHT22;2286;51.570;7.090;2023-04-15T05:27:34;4.20;99.90
4548;DHT22;2286;51.570;7.090;2023-04-15T05:30:01;4.20;99.90
4548;DHT22;2286;51.570;7.090;2023-04-15T05:32:29;4.20;99.90
4548;DHT22;2286;51.570;7.090;2023-04-15T05:34:55;4.30;99.90
4548;DHT22;2286;51.570;7.090;2023-04-15T05:37:22;4.30;99.90
4548;DHT22;2286;51.570;7.090;2023-04-15T05:39:50;4.30;99.90
4548;DHT22;2286;51.570;7.090;2023-04-15T05:42:17;4.30;99.90
4548;DHT22;2286;51.570;7.090;2023-04-15T05:44:45;4.30;99.90
4548;DHT22;2286;51.570;7.090;2023-04-15T05:47:12;4.40;99.90
4548;DHT22;2286;51.570;7.090;2023-04-15T05:49:39;4.50;99.90
4548;DHT22;2286;51.570;7.090;2023-04-15T05:52:06;4.50;99.90
4548;DHT22;2286;51.570;7.090;2023-04-15T05:54:33;4.60;99.90
4548;DHT22;2286;51.570;7.090;2023-04-15T05:57:01;4.70;99.90
4548;DHT22;2286;51.570;7.090;2023-04-15T05:59:28;4.80;99.90
4548;DHT22;2286;51.570;7.090;2023-04-15T06:01:56;4.90;99.90
4548;DHT22;2286;51.570;7.090;2023-04-15T06:04:24;5.00;99.90
4548;DHT22;2286;51.570;7.090;2023-04-15T06:06:51;5.10;99.90
4548;DHT22;2286;51.570;7.090;2023-04-15T06:09:18;5.30;99.90
4548;DHT22;2286;51.570;7.090;2023-04-15T06:11:45;5.30;99.90
4548;DHT22;2286;51.570;7.090;2023-04-15T06:14:12;5.40;99.90
4548;DHT22;2286;51.570;7.090;2023-04-15T06:16:39;5.60;99.90
4548;DHT22;2286;51.570;7.090;2023-04-15T06:19:07;5.70;99.90
4548;DHT22;2286;51.570;7.090;2023-04-15T06:21:34;5.80;99.90
4548;DHT22;2286;51.570;7.090;2023-04-15T06:24:01;6.00;99.90
4548;DHT22;2286;51.570;7.090;2023-04-15T06:26:28;6.10;99.90
4548;DHT22;2286;51.570;7.090;2023-04-15T06:28:55;6.20;99.90
4548;DHT22;2286;51.570;7.090;2023-04-15T06:31:22;6.30;99.90
4548;DHT22;2286;51.570;7.090;2023-04-15T06:33:49;6.40;99.90
4548;DHT22;2286;51.570;7.090;2023-04-15T06:36:18;6.50;99.90
4548;DHT22;2286;51.570;7.090;2023-04-15T06:38:45;6.70;99.90
4548;DHT22;2286;51.570;7.090;2023-04-15T06:41:12;6.80;99.90
4548;DHT22;2286;51.570;7.090;2023-04-15T06:43:39;7.00;70.60
4548;DHT22;2286;51.570;7.090;2023-04-15T06:46:06;7.20;1.00
4548;DHT22;2286;51.570;7.090;2023-04-15T06:48:33;7.40;1.00
4548;DHT22;2286;51.570;7.090;2023-04-15T06:51:00;7.60;99.90
4548;DHT22;2286;51.570;7.090;2023-04-15T06:53:29;7.70;1.00
4548;DHT22;2286;51.570;7.090;2023-04-15T06:55:56;7.80;99.90
4548;DHT22;2286;51.570;7.090;2023-04-15T06:58:23;7.90;1.00
4548;DHT22;2286;51.570;7.090;2023-04-15T07:00:51;8.00;99.90
4548;DHT22;2286;51.570;7.090;2023-04-15T07:03:18;8.00;99.90
4548;DHT22;2286;51.570;7.090;2023-04-15T07:05:45;8.10;99.90
4548;DHT22;2286;51.570;7.090;2023-04-15T07:08:13;8.20;1.00
4548;DHT22;2286;51.570;7.090;2023-04-15T07:10:41;8.20;1.00
4548;DHT22;2286;51.570;7.090;2023-04-15T07:13:08;8.30;1.00
4548;DHT22;2286;51.570;7.090;2023-04-15T07:15:35;8.30;1.00
4548;DHT22;2286;51.570;7.090;2023-04-15T07:18:02;8.40;1.00
4548;DHT22;2286;51.570;7.090;2023-04-15T07:20:29;8.40;99.90
4548;DHT22;2286;51.570;7.090;2023-04-15T07:22:56;8.50;99.90
4548;DHT22;2286;51.570;7.090;2023-04-15T07:25:23;8.70;99.90
4548;DHT22;2286;51.570;7.090;2023-04-15T07:27:53;8.80;99.90
4548;DHT22;2286;51.570;7.090;2023-04-15T07:30:20;9.00;1.00
4548;DHT22;2286;51.570;7.090;2023-04-15T07:32:47;9.10;99.90
4548;DHT22;2286;51.570;7.090;2023-04-15T07:35:14;9.30;1.00
4548;DHT22;2286;51.570;7.090;2023-04-15T07:37:41;9.40;53.80
4548;DHT22;2286;51.570;7.090;2023-04-15T07:40:09;9.60;53.30
4548;DHT22;2286;51.570;7.090;2023-04-15T07:42:37;9.70;1.00
4548;DHT22;2286;51.570;7.090;2023-04-15T07:45:06;9.70;99.90
4548;DHT22;2286;51.570;7.090;2023-04-15T07:47:34;9.90;99.90
4548;DHT22;2286;51.570;7.090;2023-04-15T07:50:01;10.10;99.90
4548;DHT22;2286;51.570;7.090;2023-04-15T07:52:28;10.30;99.90
4548;DHT22;2286;51.570;7.090;2023-04-15T07:54:55;10.50;1.00
4548;DHT22;2286;51.570;7.090;2023-04-15T07:57:22;10.70;99.90
4548;DHT22;2286;51.570;7.090;2023-04-15T07:59:49;10.80;1.00
4548;DHT22;2286;51.570;7.090;2023-04-15T08:02:18;11.00;99.90
4548;DHT22;2286;51.570;7.090;2023-04-15T08:04:45;11.20;99.90
4548;DHT22;2286;51.570;7.090;2023-04-15T08:07:12;11.40;1.00
4548;DHT22;2286;51.570;7.090;2023-04-15T08:09:39;11.50;99.90
4548;DHT22;2286;51.570;7.090;2023-04-15T08:12:06;11.50;99.90
4548;DHT22;2286;51.570;7.090;2023-04-15T08:14:37;11.40;99.90
4548;DHT22;2286;51.570;7.090;2023-04-15T08:17:04;11.50;99.90
4548;DHT22;2286;51.570;7.090;2023-04-15T08:19:33;11.60;99.90
4548;DHT22;2286;51.570;7.090;2023-04-15T08:22:00;11.60;7.80
4548;DHT22;2286;51.570;7.090;2023-04-15T08:24:27;11.60;59.70
4548;DHT22;2286;51.570;7.090;2023-04-15T08:26:54;11.50;36.20
4548;DHT22;2286;51.570;7.090;2023-04-15T08:29:22;11.60;1.00
4548;DHT22;2286;51.570;7.090;2023-04-15T08:31:49;11.50;1.00
4548;DHT22;2286;51.570;7.090;2023-04-15T08:34:16;11.90;1.00
4548;DHT22;2286;51.570;7.090;2023-04-15T08:36:44;12.20;1.00
4548;DHT22;2286;51.570;7.090;2023-04-15T08:39:11;12.20;1.00
4548;DHT22;2286;51.570;7.090;2023-04-15T08:41:40;12.20;1.00
4548;DHT22;2286;51.570;7.090;2023-04-15T08:44:09;12.30;1.00
4548;DHT22;2286;51.570;7.090;2023-04-15T08:46:37;12.50;1.00
4548;DHT22;2286;51.570;7.090;2023-04-15T08:49:04;12.60;99.90
4548;DHT22;2286;51.570;7.090;2023-04-15T08:51:35;12.70;99.90
4548;DHT22;2286;51.570;7.090;2023-04-15T08:54:03;12.70;99.90
4548;DHT22;2286;51.570;7.090;2023-04-15T08:56:31;12.70;99.90
4548;DHT22;2286;51.570;7.090;2023-04-15T08:58:58;12.60;99.90
4548;DHT22;2286;51.570;7.090;2023-04-15T09:01:26;12.60;99.90
4548;DHT22;2286;51.570;7.090;2023-04-15T09:03:53;12.60;99.90
4548;DHT22;2286;51.570;7.090;2023-04-15T09:06:22;12.60;99.90
4548;DHT22;2286;51.570;7.090;2023-04-15T09:08:50;12.60;99.90
4548;DHT22;2286;51.570;7.090;2023-04-15T09:11:20;12.90;99.90
4548;DHT22;2286;51.570;7.090;2023-04-15T09:13:48;13.10;99.90
4548;DHT22;2286;51.570;7.090;2023-04-15T09:16:15;13.20;99.90
4548;DHT22;2286;51.570;7.090;2023-04-15T09:18:42;13.30;99.90
4548;DHT22;2286;51.570;7.090;2023-04-15T09:21:12;13.40;99.90
4548;DHT22;2286;51.570;7.090;2023-04-15T09:23:40;13.60;99.90
4548;DHT22;2286;51.570;7.090;2023-04-15T09:26:07;13.80;99.90
4548;DHT22;2286;51.570;7.090;2023-04-15T09:28:41;13.70;99.90
4548;DHT22;2286;51.570;7.090;2023-04-15T09:31:08;13.60;99.90
4548;DHT22;2286;51.570;7.090;2023-04-15T09:33:53;13.50;99.90
4548;DHT22;2286;51.570;7.090;2023-04-15T09:36:21;13.30;99.90
4548;DHT22;2286;51.570;7.090;2023-04-15T09:38:54;13.10;99.90
4548;DHT22;2286;51.570;7.090;2023-04-15T09:41:21;13.20;99.90
4548;DHT22;2286;51.570;7.090;2023-04-15T09:43:50;13.30;99.90
4548;DHT22;2286;51.570;7.090;2023-04-15T09:46:17;13.30;99.90
4548;DHT22;2286;51.570;7.090;2023-04-15T09:48:44;13.20;99.90
4548;DHT22;2286;51.570;7.090;2023-04-15T09:51:11;13.50;99.90
4548;DHT22;2286;51.570;7.090;2023-04-15T09:53:38;13.60;99.90
4548;DHT22;2286;51.570;7.090;2023-04-15T09:56:06;13.70;99.90
4548;DHT22;2286;51.570;7.090;2023-04-15T09:58:35;13.80;99.90
4548;DHT22;2286;51.570;7.090;2023-04-15T10:01:05;13.70;99.90
4548;DHT22;2286;51.570;7.090;2023-04-15T10:03:34;13.70;99.90
4548;DHT22;2286;51.570;7.090;2023-04-15T10:06:02;13.70;99.90
4548;DHT22;2286;51.570;7.090;2023-04-15T10:08:31;13.70;99.90
4548;DHT22;2286;51.570;7.090;2023-04-15T10:10:59;13.50;99.90
4548;DHT22;2286;51.570;7.090;2023-04-15T10:13:29;13.20;99.90
4548;DHT22;2286;51.570;7.090;2023-04-15T10:16:05;13.30;99.90
4548;DHT22;2286;51.570;7.090;2023-04-15T10:18:37;13.40;99.90
4548;DHT22;2286;51.570;7.090;2023-04-15T10:21:04;13.40;99.90
4548;DHT22;2286;51.570;7.090;2023-04-15T10:23:32;13.40;99.90
4548;DHT22;2286;51.570;7.090;2023-04-15T10:26:00;13.40;99.90
4548;DHT22;2286;51.570;7.090;2023-04-15T10:28:28;13.50;99.90
4548;DHT22;2286;51.570;7.090;2023-04-15T10:30:55;13.50;99.90
4548;DHT22;2286;51.570;7.090;2023-04-15T10:33:24;13.50;99.90
4548;DHT22;2286;51.570;7.090;2023-04-15T10:35:53;13.60;99.90
4548;DHT22;2286;51.570;7.090;2023-04-15T10:38:34;13.70;99.90
4548;DHT22;2286;51.570;7.090;2023-04-15T10:41:12;13.60;99.90
4548;DHT22;2286;51.570;7.090;2023-04-15T10:43:44;13.50;99.90
4548;DHT22;2286;51.570;7.090;2023-04-15T10:46:11;13.30;99.90
4548;DHT22;2286;51.570;7.090;2023-04-15T10:48:48;13.30;99.90
4548;DHT22;2286;51.570;7.090;2023-04-15T10:51:19;13.10;1.00
4548;DHT22;2286;51.570;7.090;2023-04-15T10:53:55;13.10;1.00
4548;DHT22;2286;51.570;7.090;2023-04-15T10:56:23;13.20;1.00
4548;DHT22;2286;51.570;7.090;2023-04-15T10:58:50;13.30;1.00
4548;DHT22;2286;51.570;7.090;2023-04-15T11:01:19;13.30;1.00
4548;DHT22;2286;51.570;7.090;2023-04-15T11:03:49;13.10;1.00
4548;DHT22;2286;51.570;7.090;2023-04-15T11:06:16;12.70;1.00
4548;DHT22;2286;51.570;7.090;2023-04-15T11:08:55;12.70;1.00
4548;DHT22;2286;51.570;7.090;2023-04-15T11:14:29;12.60;1.00
4548;DHT22;2286;51.570;7.090;2023-04-15T11:16:56;12.70;1.00
4548;DHT22;2286;51.570;7.090;2023-04-15T11:19:25;12.40;1.00
4548;DHT22;2286;51.570;7.090;2023-04-15T11:21:52;12.30;1.00
4548;DHT22;2286;51.570;7.090;2023-04-15T11:24:23;12.30;1.00
4548;DHT22;2286;51.570;7.090;2023-04-15T11:26:56;12.40;1.00
4548;DHT22;2286;51.570;7.090;2023-04-15T11:29:28;12.30;1.00
4548;DHT22;2286;51.570;7.090;2023-04-15T11:32:04;12.20;1.00
4548;DHT22;2286;51.570;7.090;2023-04-15T11:34:33;12.00;1.00
4548;DHT22;2286;51.570;7.090;2023-04-15T11:37:03;11.90;1.00
4548;DHT22;2286;51.570;7.090;2023-04-15T11:39:32;11.70;1.00
4548;DHT22;2286;51.570;7.090;2023-04-15T11:41:59;11.60;28.70
4548;DHT22;2286;51.570;7.090;2023-04-15T11:44:26;11.70;84.50
4548;DHT22;2286;51.570;7.090;2023-04-15T11:46:54;11.90;11.00
4548;DHT22;2286;51.570;7.090;2023-04-15T11:49:28;12.00;1.00
4548;DHT22;2286;51.570;7.090;2023-04-15T11:51:58;11.90;1.00
4548;DHT22;2286;51.570;7.090;2023-04-15T11:54:25;11.80;1.00
4548;DHT22;2286;51.570;7.090;2023-04-15T11:56:52;11.70;1.00
4548;DHT22;2286;51.570;7.090;2023-04-15T11:59:19;11.50;16.00
4548;DHT22;2286;51.570;7.090;2023-04-15T12:01:46;11.40;99.90
4548;DHT22;2286;51.570;7.090;2023-04-15T12:04:15;11.40;99.90
4548;DHT22;2286;51.570;7.090;2023-04-15T12:06:45;11.40;99.90
4548;DHT22;2286;51.570;7.090;2023-04-15T12:09:14;11.50;99.90
4548;DHT22;2286;51.570;7.090;2023-04-15T12:11:45;11.60;99.90
4548;DHT22;2286;51.570;7.090;2023-04-15T12:14:23;11.60;81.00
4548;DHT22;2286;51.570;7.090;2023-04-15T12:16:51;11.50;99.90
4548;DHT22;2286;51.570;7.090;2023-04-15T12:19:23;11.40;99.90
4548;DHT22;2286;51.570;7.090;2023-04-15T12:21:52;11.40;99.90
4548;DHT22;2286;51.570;7.090;2023-04-15T12:24:21;11.60;99.90
4548;DHT22;2286;51.570;7.090;2023-04-15T12:26:51;11.60;80.40
4548;DHT22;2286;51.570;7.090;2023-04-15T12:29:19;11.60;93.50
4548;DHT22;2286;51.570;7.090;2023-04-15T12:31:48;11.50;99.90
4548;DHT22;2286;51.570;7.090;2023-04-15T12:34:16;11.50;99.90
4548;DHT22;2286;51.570;7.090;2023-04-15T12:36:44;11.60;99.90
4548;DHT22;2286;51.570;7.090;2023-04-15T12:39:12;11.70;20.60
4548;DHT22;2286;51.570;7.090;2023-04-15T12:41:40;11.90;1.00
4548;DHT22;2286;51.570;7.090;2023-04-15T12:44:07;12.00;1.00
4548;DHT22;2286;51.570;7.090;2023-04-15T12:46:34;12.00;1.00
4548;DHT22;2286;51.570;7.090;2023-04-15T12:49:01;11.90;1.00
4548;DHT22;2286;51.570;7.090;2023-04-15T12:51:28;11.90;1.00
4548;DHT22;2286;51.570;7.090;2023-04-15T12:53:56;11.90;1.00
4548;DHT22;2286;51.570;7.090;2023-04-15T12:56:23;11.80;1.90
4548;DHT22;2286;51.570;7.090;2023-04-15T12:58:52;11.90;1.00
4548;DHT22;2286;51.570;7.090;2023-04-15T13:01:20;12.00;1.00
4548;DHT22;2286;51.570;7.090;2023-04-15T13:03:47;12.00;1.00
4548;DHT22;2286;51.570;7.090;2023-04-15T13:06:15;12.00;1.00
4548;DHT22;2286;51.570;7.090;2023-04-15T13:08:42;12.00;1.00
4548;DHT22;2286;51.570;7.090;2023-04-15T13:11:09;12.00;1.00
4548;DHT22;2286;51.570;7.090;2023-04-15T13:13:36;12.00;1.00
4548;DHT22;2286;51.570;7.090;2023-04-15T13:16:05;12.00;1.00
4548;DHT22;2286;51.570;7.090;2023-04-15T13:18:32;11.80;1.00
4548;DHT22;2286;51.570;7.090;2023-04-15T13:21:00;11.80;1.40
4548;DHT22;2286;51.570;7.090;2023-04-15T13:23:27;11.60;15.70
4548;DHT22;2286;51.570;7.090;2023-04-15T13:25:54;11.50;86.60
4548;DHT22;2286;51.570;7.090;2023-04-15T13:28:21;11.50;99.90
4548;DHT22;2286;51.570;7.090;2023-04-15T13:30:48;11.50;99.90
4548;DHT22;2286;51.570;7.090;2023-04-15T13:33:17;11.60;1.00
4548;DHT22;2286;51.570;7.090;2023-04-15T13:35:44;11.60;1.00
4548;DHT22;2286;51.570;7.090;2023-04-15T13:38:11;11.60;1.00
4548;DHT22;2286;51.570;7.090;2023-04-15T13:40:38;11.50;1.00
4548;DHT22;2286;51.570;7.090;2023-04-15T13:43:05;11.40;1.00
4548;DHT22;2286;51.570;7.090;2023-04-15T13:45:32;11.30;99.90
4548;DHT22;2286;51.570;7.090;2023-04-15T13:47:59;11.20;1.00
4548;DHT22;2286;51.570;7.090;2023-04-15T13:50:28;11.20;1.00
4548;DHT22;2286;51.570;7.090;2023-04-15T13:52:55;11.00;1.00
4548;DHT22;2286;51.570;7.090;2023-04-15T13:55:22;10.90;99.90
4548;DHT22;2286;51.570;7.090;2023-04-15T13:57:49;10.90;1.00
4548;DHT22;2286;51.570;7.090;2023-04-15T14:00:16;10.90;1.00
4548;DHT22;2286;51.570;7.090;2023-04-15T14:02:43;10.80;1.00
4548;DHT22;2286;51.570;7.090;2023-04-15T14:05:11;10.80;1.00
4548;DHT22;2286;51.570;7.090;2023-04-15T14:07:39;10.80;1.00
4548;DHT22;2286;51.570;7.090;2023-04-15T14:10:07;10.80;1.00
4548;DHT22;2286;51.570;7.090;2023-04-15T14:12:34;10.80;99.90
4548;DHT22;2286;51.570;7.090;2023-04-15T14:15:01;10.80;99.90
4548;DHT22;2286;51.570;7.090;2023-04-15T14:17:28;10.80;1.00
4548;DHT22;2286;51.570;7.090;2023-04-15T14:19:55;10.80;1.00
4548;DHT22;2286;51.570;7.090;2023-04-15T14:22:22;10.60;99.90
4548;DHT22;2286;51.570;7.090;2023-04-15T14:24:51;10.60;31.10
4548;DHT22;2286;51.570;7.090;2023-04-15T14:27:20;10.50;99.90
4548;DHT22;2286;51.570;7.090;2023-04-15T14:29:47;10.60;70.60
4548;DHT22;2286;51.570;7.090;2023-04-15T14:32:14;10.60;99.90
4548;DHT22;2286;51.570;7.090;2023-04-15T14:34:41;10.60;44.50
4548;DHT22;2286;51.570;7.090;2023-04-15T14:37:08;10.60;99.90
4548;DHT22;2286;51.570;7.090;2023-04-15T14:39:35;10.70;1.00
4548;DHT22;2286;51.570;7.090;2023-04-15T14:42:04;10.70;99.90
4548;DHT22;2286;51.570;7.090;2023-04-15T14:44:31;10.70;99.90
4548;DHT22;2286;51.570;7.090;2023-04-15T14:46:58;10.70;1.00
4548;DHT22;2286;51.570;7.090;2023-04-15T14:49:25;10.60;99.90
4548;DHT22;2286;51.570;7.090;2023-04-15T14:51:52;10.60;99.90
4548;DHT22;2286;51.570;7.090;2023-04-15T14:54:19;10.50;99.90
4548;DHT22;2286;51.570;7.090;2023-04-15T14:56:46;10.40;99.90
4548;DHT22;2286;51.570;7.090;2023-04-15T14:59:14;10.40;1.00
4548;DHT22;2286;51.570;7.090;2023-04-15T15:01:41;10.30;1.00
4548;DHT22;2286;51.570;7.090;2023-04-15T15:04:09;10.40;1.00
4548;DHT22;2286;51.570;7.090;2023-04-15T15:06:36;10.30;99.90
4548;DHT22;2286;51.570;7.090;2023-04-15T15:09:03;10.30;1.00
4548;DHT22;2286;51.570;7.090;2023-04-15T15:11:30;10.20;99.90
4548;DHT22;2286;51.570;7.090;2023-04-15T15:13:57;10.20;1.00
4548;DHT22;2286;51.570;7.090;2023-04-15T15:16:26;10.20;99.90
4548;DHT22;2286;51.570;7.090;2023-04-15T15:18:54;10.10;1.00
4548;DHT22;2286;51.570;7.090;2023-04-15T15:21:21;10.10;1.00
4548;DHT22;2286;51.570;7.090;2023-04-15T15:23:48;10.00;99.90
4548;DHT22;2286;51.570;7.090;2023-04-15T15:26:15;10.00;1.00
4548;DHT22;2286;51.570;7.090;2023-04-15T15:28:43;10.00;1.00
4548;DHT22;2286;51.570;7.090;2023-04-15T15:31:11;10.00;99.90
4548;DHT22;2286;51.570;7.090;2023-04-15T15:33:39;10.00;1.00
4548;DHT22;2286;51.570;7.090;2023-04-15T15:36:06;10.00;1.00
4548;DHT22;2286;51.570;7.090;2023-04-15T15:38:33;10.00;1.00
4548;DHT22;2286;51.570;7.090;2023-04-15T15:41:00;10.00;99.90
4548;DHT22;2286;51.570;7.090;2023-04-15T15:43:27;10.00;99.90
4548;DHT22;2286;51.570;7.090;2023-04-15T15:45:54;10.00;1.80
4548;DHT22;2286;51.570;7.090;2023-04-15T15:48:22;9.90;1.00
4548;DHT22;2286;51.570;7.090;2023-04-15T15:50:51;9.80;12.30
4548;DHT22;2286;51.570;7.090;2023-04-15T15:53:18;9.80;99.90
4548;DHT22;2286;51.570;7.090;2023-04-15T15:55:48;9.70;99.90
4548;DHT22;2286;51.570;7.090;2023-04-15T15:58:15;9.80;99.90
4548;DHT22;2286;51.570;7.090;2023-04-15T16:00:42;9.80;48.60
4548;DHT22;2286;51.570;7.090;2023-04-15T16:03:09;9.70;1.00
4548;DHT22;2286;51.570;7.090;2023-04-15T16:05:37;9.60;1.00
4548;DHT22;2286;51.570;7.090;2023-04-15T16:08:06;9.60;1.00
4548;DHT22;2286;51.570;7.090;2023-04-15T16:10:33;9.60;99.90
4548;DHT22;2286;51.570;7.090;2023-04-15T16:13:00;9.60;10.40
4548;DHT22;2286;51.570;7.090;2023-04-15T16:15:28;9.60;21.60
4548;DHT22;2286;51.570;7.090;2023-04-15T16:17:55;9.60;1.00
4548;DHT22;2286;51.570;7.090;2023-04-15T16:20:22;9.50;1.00
4548;DHT22;2286;51.570;7.090;2023-04-15T16:22:49;9.50;99.90